createdAt,value
2023-02-14T00:00:29.337Z,22.50
2023-02-14T00:02:57.119Z,24.20
2023-02-14T00:05:23.754Z,23.20
2023-02-14T00:07:50.475Z,21.13
2023-02-14T00:10:17.364Z,23.58
2023-02-14T00:12:43.879Z,23.20
2023-02-14T00:15:22.892Z,22.80
2023-02-14T00:17:54.734Z,22.13
2023-02-14T00:20:22.384Z,23.55
2023-02-14T00:22:49.216Z,20.67
2023-02-14T00:25:16.373Z,23.77
2023-02-14T00:27:42.937Z,23.25
2023-02-14T00:30:11.341Z,23.40
2023-02-14T00:32:42.065Z,22.88
2023-02-14T00:35:09.631Z,22.40
2023-02-14T00:37:36.170Z,21.17
2023-02-14T00:40:02.637Z,22.08
2023-02-14T00:42:29.235Z,23.50
2023-02-14T00:44:55.790Z,22.98
2023-02-14T00:47:22.323Z,23.48
2023-02-14T00:49:48.825Z,22.00
2023-02-14T00:52:15.377Z,22.48
2023-02-14T00:54:41.860Z,23.60
2023-02-14T00:57:08.340Z,23.40
2023-02-14T00:59:34.808Z,23.50
2023-02-14T01:02:01.284Z,24.08
2023-02-14T01:04:27.834Z,26.38
2023-02-14T01:06:54.258Z,24.57
2023-02-14T01:09:20.711Z,23.65
2023-02-14T01:11:48.706Z,24.52
2023-02-14T01:14:15.742Z,25.13
2023-02-14T01:16:42.232Z,25.25
2023-02-14T01:19:09.374Z,21.67
2023-02-14T01:21:36.339Z,22.60
2023-02-14T01:24:06.723Z,21.35
2023-02-14T01:26:33.892Z,21.48
2023-02-14T01:29:00.380Z,24.15
2023-02-14T01:31:33.708Z,22.77
2023-02-14T01:34:00.442Z,23.75
2023-02-14T01:36:38.792Z,20.75
2023-02-14T01:39:09.075Z,22.85
2023-02-14T01:41:37.841Z,22.60
2023-02-14T01:44:16.907Z,22.13
2023-02-14T01:46:45.369Z,20.83
2023-02-14T01:49:14.682Z,19.35
2023-02-14T01:51:47.026Z,20.25
2023-02-14T01:54:13.690Z,21.23
2023-02-14T01:56:49.251Z,19.30
2023-02-14T01:59:21.205Z,20.30
2023-02-14T02:01:50.121Z,18.52
2023-02-14T02:04:22.691Z,18.77
2023-02-14T02:06:55.434Z,19.35
2023-02-14T02:09:32.716Z,18.57
2023-02-14T02:11:59.520Z,17.88
2023-02-14T02:14:26.043Z,17.75
2023-02-14T02:17:36.898Z,19.10
2023-02-14T02:20:39.319Z,17.20
2023-02-14T02:23:24.529Z,17.83
2023-02-14T02:26:28.612Z,17.17
2023-02-14T02:29:19.985Z,17.20
2023-02-14T02:31:58.814Z,18.95
2023-02-14T02:34:25.356Z,18.73
2023-02-14T02:37:00.551Z,18.57
2023-02-14T02:39:35.819Z,18.77
2023-02-14T02:42:34.620Z,18.67
2023-02-14T02:45:22.035Z,18.08
2023-02-14T02:48:09.843Z,18.67
2023-02-14T02:51:02.628Z,17.30
2023-02-14T02:53:48.587Z,17.83
2023-02-14T02:56:41.250Z,17.33
2023-02-14T02:59:24.449Z,17.27
2023-02-14T03:01:58.444Z,17.95
2023-02-14T03:04:45.949Z,18.57
2023-02-14T03:07:31.570Z,19.02
2023-02-14T03:10:00.591Z,17.92
2023-02-14T03:12:30.183Z,18.45
2023-02-14T03:15:02.791Z,19.08
2023-02-14T03:17:54.244Z,19.30
2023-02-14T03:20:28.432Z,17.30
2023-02-14T03:23:17.484Z,17.92
2023-02-14T03:26:17.238Z,17.90
2023-02-14T03:29:15.761Z,17.38
2023-02-14T03:31:57.532Z,17.07
2023-02-14T03:34:33.181Z,18.95
2023-02-14T03:37:10.692Z,19.17
2023-02-14T03:39:39.776Z,17.17
2023-02-14T03:42:31.111Z,19.25
2023-02-14T03:45:00.402Z,17.63
2023-02-14T03:47:31.391Z,16.98
2023-02-14T03:50:13.311Z,17.85
2023-02-14T03:52:41.087Z,18.60
2023-02-14T03:55:09.451Z,17.65
2023-02-14T03:57:45.609Z,17.33
2023-02-14T04:00:12.958Z,18.35
2023-02-14T04:02:44.228Z,18.48
2023-02-14T04:05:21.388Z,17.02
2023-02-14T04:07:51.582Z,17.80
2023-02-14T04:10:19.819Z,18.83
2023-02-14T04:12:46.839Z,16.55
2023-02-14T04:15:14.501Z,17.70
2023-02-14T04:18:00.168Z,17.65
2023-02-14T04:20:27.441Z,16.25
2023-02-14T04:22:54.337Z,16.87
2023-02-14T04:25:21.844Z,18.15
2023-02-14T04:27:48.720Z,16.90
2023-02-14T04:30:17.896Z,16.38
2023-02-14T04:32:44.503Z,17.33
2023-02-14T04:35:11.030Z,18.43
2023-02-14T04:37:37.728Z,17.30
2023-02-14T04:40:04.749Z,17.83
2023-02-14T04:42:31.317Z,17.23
2023-02-14T04:44:57.970Z,16.38
2023-02-14T04:47:25.034Z,17.47
2023-02-14T04:49:51.604Z,15.98
2023-02-14T04:52:18.152Z,15.75
2023-02-14T04:54:44.615Z,17.63
2023-02-14T04:57:11.148Z,17.20
2023-02-14T04:59:37.611Z,18.90
2023-02-14T05:02:04.371Z,17.30
2023-02-14T05:04:30.904Z,17.70
2023-02-14T05:06:57.385Z,17.90
2023-02-14T05:09:23.950Z,18.67
2023-02-14T05:11:50.443Z,17.50
2023-02-14T05:14:16.898Z,18.95
2023-02-14T05:16:43.414Z,19.05
2023-02-14T05:19:09.949Z,18.13
2023-02-14T05:21:36.432Z,18.67
2023-02-14T05:24:02.958Z,18.63
2023-02-14T05:26:29.858Z,16.42
2023-02-14T05:28:56.629Z,18.73
2023-02-14T05:31:23.175Z,17.20
2023-02-14T05:33:49.866Z,17.60
2023-02-14T05:36:16.626Z,17.47
2023-02-14T05:38:43.065Z,17.50
2023-02-14T05:41:10.723Z,16.70
2023-02-14T05:43:37.274Z,17.75
2023-02-14T05:46:03.885Z,19.60
2023-02-14T05:48:30.877Z,18.83
2023-02-14T05:50:57.627Z,17.10
2023-02-14T05:53:24.344Z,17.92
2023-02-14T05:55:50.804Z,16.88
2023-02-14T05:58:17.320Z,17.30
2023-02-14T06:00:43.779Z,16.67
2023-02-14T06:03:10.256Z,16.08
2023-02-14T06:05:36.704Z,16.73
2023-02-14T06:08:03.324Z,17.75
2023-02-14T06:10:29.923Z,16.40
2023-02-14T06:12:56.759Z,14.53
2023-02-14T06:15:23.571Z,16.33
2023-02-14T06:17:57.631Z,15.38
2023-02-14T06:20:25.344Z,16.75
2023-02-14T06:22:53.292Z,15.40
2023-02-14T06:25:20.466Z,15.77
2023-02-14T06:27:49.286Z,13.25
2023-02-14T06:30:17.202Z,13.57
2023-02-14T06:32:43.746Z,14.27
2023-02-14T06:35:10.305Z,15.38
2023-02-14T06:37:38.611Z,14.57
2023-02-14T06:40:05.809Z,16.58
2023-02-14T06:42:32.297Z,14.95
2023-02-14T06:44:58.867Z,15.93
2023-02-14T06:47:25.388Z,16.10
2023-02-14T06:49:51.902Z,17.40
2023-02-14T06:52:18.443Z,14.70
2023-02-14T06:54:44.948Z,16.25
2023-02-14T06:57:11.502Z,16.73
2023-02-14T06:59:38.043Z,17.25
2023-02-14T07:02:04.513Z,16.13
2023-02-14T07:04:31.040Z,15.68
2023-02-14T07:06:58.275Z,17.60
2023-02-14T07:09:24.778Z,17.67
2023-02-14T07:11:51.477Z,16.67
2023-02-14T07:14:17.965Z,17.80
2023-02-14T07:16:44.410Z,17.27
2023-02-14T07:19:11.037Z,18.13
2023-02-14T07:21:37.592Z,17.42
2023-02-14T07:24:04.147Z,15.60
2023-02-14T07:26:30.642Z,17.43
2023-02-14T07:28:57.170Z,18.50
2023-02-14T07:31:23.899Z,17.63
2023-02-14T07:33:51.923Z,19.83
2023-02-14T07:36:18.659Z,19.70
2023-02-14T07:38:45.267Z,20.77
2023-02-14T07:41:11.744Z,22.73
2023-02-14T07:43:39.622Z,20.42
2023-02-14T07:46:06.783Z,19.50
2023-02-14T07:48:34.479Z,19.25
2023-02-14T07:51:01.660Z,19.30
2023-02-14T07:53:28.431Z,18.13
2023-02-14T07:55:54.951Z,18.67
2023-02-14T07:58:21.415Z,19.75
2023-02-14T08:00:47.931Z,19.40
2023-02-14T08:03:14.907Z,21.73
2023-02-14T08:05:42.117Z,20.40
2023-02-14T08:08:08.911Z,20.73
2023-02-14T08:10:35.417Z,21.90
2023-02-14T08:13:02.207Z,22.05
2023-02-14T08:15:52.554Z,21.53
2023-02-14T08:18:21.157Z,20.42
2023-02-14T08:20:51.085Z,22.02
2023-02-14T08:23:18.761Z,20.40
2023-02-14T08:25:46.179Z,21.17
2023-02-14T08:28:13.793Z,21.07
2023-02-14T08:30:40.983Z,21.02
2023-02-14T08:33:07.521Z,20.70
2023-02-14T08:35:34.680Z,20.85
2023-02-14T08:38:01.251Z,22.73
2023-02-14T08:40:28.638Z,21.80
2023-02-14T08:42:55.120Z,21.92
2023-02-14T08:45:21.886Z,21.77
2023-02-14T08:47:48.383Z,23.90
2023-02-14T08:50:17.366Z,22.77
2023-02-14T08:52:44.454Z,23.67
2023-02-14T08:55:12.639Z,22.48
2023-02-14T08:57:40.082Z,22.15
2023-02-14T09:00:07.571Z,21.73
2023-02-14T09:02:34.491Z,22.20
2023-02-14T09:05:01.178Z,23.87
2023-02-14T09:07:27.795Z,23.33
2023-02-14T09:09:54.405Z,23.73
2023-02-14T09:12:20.977Z,23.42
2023-02-14T09:14:47.452Z,24.25
2023-02-14T09:17:15.069Z,23.33
2023-02-14T09:19:42.451Z,23.52
2023-02-14T09:22:10.301Z,23.42
2023-02-14T09:24:38.410Z,23.30
2023-02-14T09:27:05.916Z,24.25
2023-02-14T09:29:32.524Z,23.67
2023-02-14T09:32:01.211Z,23.20
2023-02-14T09:34:29.356Z,22.67
2023-02-14T09:36:55.865Z,22.52
2023-02-14T09:39:22.542Z,24.15
2023-02-14T09:42:13.564Z,23.27
2023-02-14T09:44:41.557Z,24.92
2023-02-14T09:47:40.236Z,23.90
2023-02-14T09:50:13.892Z,24.38
2023-02-14T09:52:40.472Z,23.98
2023-02-14T09:55:13.435Z,25.03
2023-02-14T09:58:06.044Z,25.13
2023-02-14T10:00:38.591Z,24.20
2023-02-14T10:03:40.416Z,24.00
2023-02-14T10:06:15.940Z,24.80
2023-02-14T10:09:09.360Z,24.37
2023-02-14T10:11:36.332Z,24.50
2023-02-14T10:14:16.772Z,23.98
2023-02-14T10:16:49.144Z,23.83
2023-02-14T10:19:22.422Z,24.60
2023-02-14T10:21:56.977Z,22.00
2023-02-14T10:24:23.440Z,23.48
2023-02-14T10:26:50.903Z,23.27
2023-02-14T10:29:19.659Z,24.58
2023-02-14T10:31:57.664Z,24.10
2023-02-14T10:34:35.547Z,23.50
2023-02-14T10:37:34.734Z,25.38
2023-02-14T10:40:17.515Z,24.40
2023-02-14T10:43:21.834Z,24.80
2023-02-14T10:46:13.496Z,24.33
2023-02-14T10:48:52.092Z,24.67
2023-02-14T10:51:33.513Z,24.45
2023-02-14T10:54:18.660Z,24.20
2023-02-14T10:56:51.175Z,23.55
2023-02-14T10:59:26.982Z,24.30
2023-02-14T11:01:55.296Z,24.47
2023-02-14T11:04:24.860Z,24.80
2023-02-14T11:06:52.659Z,23.75
2023-02-14T11:09:20.388Z,24.02
2023-02-14T11:11:59.384Z,24.55
2023-02-14T11:14:28.219Z,24.00
2023-02-14T11:16:55.835Z,23.48
2023-02-14T11:19:28.379Z,23.75
2023-02-14T11:21:57.658Z,24.02
2023-02-14T11:24:36.082Z,23.95
2023-02-14T11:27:17.238Z,23.43
2023-02-14T11:29:48.075Z,24.35
2023-02-14T11:32:22.670Z,21.33
2023-02-14T11:35:19.611Z,23.05
2023-02-14T11:37:50.988Z,22.20
2023-02-14T11:40:43.587Z,23.43
2023-02-14T11:43:14.560Z,24.00
2023-02-14T11:45:46.195Z,23.75
2023-02-14T11:48:31.543Z,23.60
2023-02-14T11:51:15.014Z,22.98
2023-02-14T11:53:45.022Z,23.80
2023-02-14T11:56:12.714Z,22.92
2023-02-14T11:58:46.244Z,22.83
2023-02-14T12:01:22.025Z,24.23
2023-02-14T12:03:49.646Z,23.25
2023-02-14T12:06:28.575Z,23.23
2023-02-14T12:09:11.729Z,21.75
2023-02-14T12:11:38.790Z,21.98
2023-02-14T12:14:05.849Z,22.25
2023-02-14T12:16:47.405Z,23.25
2023-02-14T12:19:20.007Z,21.43
2023-02-14T12:22:03.434Z,23.17
2023-02-14T12:24:35.161Z,21.48
2023-02-14T12:27:21.073Z,22.67
2023-02-14T12:29:54.433Z,23.15
2023-02-14T12:32:29.957Z,22.70
2023-02-14T12:35:06.543Z,22.33
2023-02-14T12:38:04.302Z,21.70
2023-02-14T12:41:05.852Z,21.35
2023-02-14T12:43:48.021Z,22.15
2023-02-14T12:49:00.929Z,22.23
2023-02-14T12:51:36.178Z,22.55
2023-02-14T12:54:08.360Z,23.17
2023-02-14T12:56:56.124Z,19.90
2023-02-14T12:59:34.135Z,19.63
2023-02-14T13:02:22.791Z,19.77
2023-02-14T13:04:52.254Z,21.33
2023-02-14T13:07:54.788Z,20.67
2023-02-14T13:10:30.566Z,21.00
2023-02-14T13:13:31.308Z,20.17
2023-02-14T13:15:58.415Z,18.40
2023-02-14T13:19:05.411Z,19.83
2023-02-14T13:21:37.101Z,20.45
2023-02-14T13:24:20.492Z,19.48
2023-02-14T13:26:53.713Z,18.83
2023-02-14T13:29:27.460Z,18.80
2023-02-14T13:31:58.734Z,18.98
2023-02-14T13:34:32.818Z,20.48
2023-02-14T13:37:02.488Z,17.52
2023-02-14T13:39:37.943Z,18.40
2023-02-14T13:42:06.388Z,19.73
2023-02-14T13:44:38.694Z,19.10
2023-02-14T13:47:07.693Z,19.45
2023-02-14T13:49:40.616Z,18.80
2023-02-14T13:52:07.176Z,18.03
2023-02-14T13:54:47.090Z,19.08
2023-02-14T13:57:28.133Z,18.33
2023-02-14T14:00:16.423Z,19.40
2023-02-14T14:03:03.826Z,18.65
2023-02-14T14:05:30.434Z,17.03
2023-02-14T14:08:16.808Z,18.38
2023-02-14T14:10:49.000Z,17.55
2023-02-14T14:13:40.329Z,17.58
2023-02-14T14:16:27.928Z,17.58
2023-02-14T14:19:09.528Z,16.40
2023-02-14T14:21:44.609Z,16.02
2023-02-14T14:24:24.202Z,17.30
2023-02-14T14:27:03.459Z,16.08
2023-02-14T14:29:36.843Z,16.23
2023-02-14T14:32:10.333Z,15.83
2023-02-14T14:34:37.352Z,17.30
2023-02-14T14:37:16.036Z,16.65
2023-02-14T14:39:42.590Z,16.42
2023-02-14T14:42:18.396Z,16.95
2023-02-14T14:45:04.324Z,15.33
2023-02-14T14:47:45.454Z,15.88
2023-02-14T14:50:18.726Z,15.73
2023-02-14T14:52:51.376Z,16.45
2023-02-14T14:55:39.446Z,15.30
2023-02-14T14:58:27.424Z,15.60
2023-02-14T15:00:53.899Z,16.20
2023-02-14T15:03:25.341Z,15.13
2023-02-14T15:06:01.994Z,16.13
2023-02-14T15:08:36.626Z,15.18
2023-02-14T15:11:08.118Z,14.93
2023-02-14T15:13:54.950Z,13.88
2023-02-14T15:16:40.602Z,14.50
2023-02-14T15:19:10.630Z,13.63
2023-02-14T15:21:40.269Z,14.35
2023-02-14T15:24:13.252Z,14.13
2023-02-14T15:26:42.706Z,14.77
2023-02-14T15:29:22.411Z,14.77
2023-02-14T15:31:49.925Z,13.82
2023-02-14T15:34:23.623Z,15.00
2023-02-14T15:36:56.580Z,14.83
2023-02-14T15:39:30.019Z,15.80
2023-02-14T15:41:56.563Z,17.00
2023-02-14T15:44:25.330Z,15.80
2023-02-14T15:46:59.720Z,16.52
2023-02-14T15:49:37.492Z,15.93
2023-02-14T15:52:06.316Z,16.77
2023-02-14T15:54:39.285Z,15.95
2023-02-14T15:57:16.515Z,15.10
2023-02-14T15:59:43.282Z,16.48
2023-02-14T16:02:37.770Z,16.23
2023-02-14T16:05:17.720Z,16.63
2023-02-14T16:08:04.049Z,16.20
2023-02-14T16:10:35.641Z,16.92
2023-02-14T16:13:06.585Z,16.38
2023-02-14T16:15:37.799Z,17.47
2023-02-14T16:18:18.111Z,19.45
2023-02-14T16:20:48.899Z,18.35
2023-02-14T16:23:27.258Z,18.10
2023-02-14T16:25:57.224Z,18.00
2023-02-14T16:28:27.845Z,17.87
2023-02-14T16:30:56.871Z,19.10
2023-02-14T16:33:26.617Z,18.55
2023-02-14T16:35:54.534Z,19.20
2023-02-14T16:38:21.824Z,18.05
2023-02-14T16:40:51.608Z,18.43
2023-02-14T16:43:20.231Z,19.45
2023-02-14T16:45:47.774Z,19.63
2023-02-14T16:48:15.918Z,19.23
2023-02-14T16:50:43.360Z,18.48
2023-02-14T16:53:28.856Z,19.33
2023-02-14T16:55:57.260Z,19.85
2023-02-14T16:58:29.243Z,20.92
2023-02-14T17:00:58.590Z,21.10
2023-02-14T17:03:25.529Z,21.95
2023-02-14T17:05:52.618Z,21.53
2023-02-14T17:08:19.186Z,22.98
2023-02-14T17:10:48.586Z,23.67
2023-02-14T17:13:19.842Z,22.35
2023-02-14T17:15:46.772Z,21.30
2023-02-14T17:18:17.747Z,23.67
2023-02-14T17:20:44.260Z,24.45
2023-02-14T17:23:10.776Z,25.77
2023-02-14T17:25:37.427Z,24.58
2023-02-14T17:28:04.194Z,25.95
2023-02-14T17:30:30.993Z,29.50
2023-02-14T17:32:57.596Z,33.08
2023-02-14T17:35:24.189Z,34.22
2023-02-14T17:37:50.740Z,33.33
2023-02-14T17:40:17.307Z,30.30
2023-02-14T17:42:43.840Z,23.43
2023-02-14T17:45:11.768Z,28.33
2023-02-14T17:47:40.504Z,31.38
2023-02-14T17:50:07.759Z,33.22
2023-02-14T17:52:34.435Z,37.92
2023-02-14T17:55:01.023Z,47.87
2023-02-14T17:57:27.499Z,52.72
2023-02-14T17:59:54.025Z,46.05
2023-02-14T18:02:20.588Z,41.63
2023-02-14T18:04:48.397Z,38.30
2023-02-14T18:07:14.904Z,34.73
2023-02-14T18:09:41.497Z,36.72
2023-02-14T18:12:14.671Z,36.75
2023-02-14T18:14:41.815Z,32.05
2023-02-14T18:17:08.457Z,30.92
2023-02-14T18:19:34.966Z,34.70
2023-02-14T18:22:01.621Z,37.38
2023-02-14T18:24:28.149Z,37.30
2023-02-14T18:26:55.423Z,37.30
2023-02-14T18:29:22.686Z,40.63
2023-02-14T18:31:49.614Z,44.83
2023-02-14T18:34:16.188Z,43.38
2023-02-14T18:36:42.708Z,43.45
2023-02-14T18:39:09.764Z,51.10
2023-02-14T18:41:36.918Z,41.90
2023-02-14T18:44:03.630Z,43.67
2023-02-14T18:46:33.157Z,47.30
2023-02-14T18:48:59.743Z,52.42
2023-02-14T18:51:29.655Z,49.95
2023-02-14T18:53:58.999Z,40.22
2023-02-14T18:56:28.944Z,36.63
2023-02-14T18:59:00.983Z,30.42
2023-02-14T19:01:34.371Z,35.03
2023-02-14T19:04:01.320Z,51.05
2023-02-14T19:06:30.472Z,53.13
2023-02-14T19:08:58.074Z,52.80
2023-02-14T19:11:28.055Z,51.80
2023-02-14T19:13:57.717Z,42.95
2023-02-14T19:16:34.228Z,44.15
2023-02-14T19:19:02.697Z,43.38
2023-02-14T19:21:33.607Z,39.83
2023-02-14T19:24:00.999Z,32.03
2023-02-14T19:26:32.890Z,29.58
2023-02-14T19:29:02.247Z,31.38
2023-02-14T19:31:29.434Z,31.83
2023-02-14T19:33:56.613Z,33.03
2023-02-14T19:36:23.966Z,36.53
2023-02-14T19:38:52.766Z,41.67
2023-02-14T19:41:21.655Z,39.28
2023-02-14T19:43:49.059Z,40.60
2023-02-14T19:46:17.936Z,40.37
2023-02-14T19:48:45.219Z,37.25
2023-02-14T19:51:17.226Z,37.80
2023-02-14T19:53:43.987Z,36.90
2023-02-14T19:56:11.103Z,35.63
2023-02-14T19:58:37.731Z,37.30
2023-02-14T20:01:05.791Z,31.55
2023-02-14T20:03:32.763Z,33.00
2023-02-14T20:05:59.216Z,28.73
2023-02-14T20:08:25.675Z,29.52
2023-02-14T20:10:52.179Z,28.43
2023-02-14T20:13:18.676Z,34.33
2023-02-14T20:15:45.626Z,33.35
2023-02-14T20:18:12.207Z,35.83
2023-02-14T20:20:57.391Z,32.80
2023-02-14T20:23:23.912Z,31.50
2023-02-14T20:25:50.429Z,36.78
2023-02-14T20:28:16.863Z,36.15
2023-02-14T20:30:43.422Z,34.33
2023-02-14T20:33:10.016Z,32.85
2023-02-14T20:35:40.395Z,30.77
2023-02-14T20:38:07.726Z,33.38
2023-02-14T20:40:39.203Z,32.15
2023-02-14T20:43:06.036Z,35.03
2023-02-14T20:45:33.017Z,32.80
2023-02-14T20:48:04.001Z,32.73
2023-02-14T20:50:31.213Z,33.08
2023-02-14T20:52:58.311Z,29.85
2023-02-14T20:55:27.118Z,32.00
2023-02-14T20:57:54.009Z,31.98
2023-02-14T21:00:20.614Z,26.70
2023-02-14T21:02:47.119Z,28.10
2023-02-14T21:05:18.306Z,29.50
2023-02-14T21:07:44.797Z,30.63
2023-02-14T21:10:11.328Z,32.25
2023-02-14T21:12:38.652Z,32.43
2023-02-14T21:15:06.919Z,35.65
2023-02-14T21:17:33.882Z,35.00
2023-02-14T21:20:00.394Z,36.15
2023-02-14T21:22:26.910Z,39.40
2023-02-14T21:24:53.642Z,40.90
2023-02-14T21:27:20.112Z,41.92
2023-02-14T21:29:46.620Z,46.83
2023-02-14T21:32:13.283Z,49.67
2023-02-14T21:34:39.853Z,49.15
2023-02-14T21:37:06.438Z,45.47
2023-02-14T21:39:35.722Z,48.47
2023-02-14T21:42:02.426Z,42.72
2023-02-14T21:44:47.419Z,41.50
2023-02-14T21:47:14.241Z,36.55
2023-02-14T21:49:59.238Z,36.40
2023-02-14T21:52:25.731Z,35.42
2023-02-14T21:54:52.486Z,33.92
2023-02-14T21:57:19.057Z,31.25
2023-02-14T21:59:45.568Z,32.50
2023-02-14T22:02:12.448Z,33.57
2023-02-14T22:04:39.008Z,33.85
2023-02-14T22:07:05.816Z,32.55
2023-02-14T22:09:32.295Z,31.42
2023-02-14T22:11:58.806Z,32.13
2023-02-14T22:14:25.445Z,30.90
2023-02-14T22:16:51.985Z,33.33
2023-02-14T22:19:18.480Z,35.10
2023-02-14T22:21:45.235Z,34.22
2023-02-14T22:24:12.641Z,31.58
2023-02-14T22:26:40.852Z,32.73
2023-02-14T22:29:10.381Z,29.42
2023-02-14T22:31:42.713Z,33.00
2023-02-14T22:34:12.335Z,29.95
2023-02-14T22:36:39.200Z,29.75
2023-02-14T22:39:06.428Z,31.57
2023-02-14T22:41:37.719Z,33.83
2023-02-14T22:44:05.835Z,33.33
2023-02-14T22:46:33.128Z,35.17
2023-02-14T22:48:59.608Z,35.97
2023-02-14T22:51:35.356Z,33.43
2023-02-14T22:54:14.583Z,32.60
2023-02-14T22:56:49.169Z,30.83
2023-02-14T22:59:20.718Z,29.98
2023-02-14T23:01:48.980Z,29.13
2023-02-14T23:04:17.267Z,28.60
2023-02-14T23:06:44.231Z,30.63
2023-02-14T23:09:12.202Z,30.73
2023-02-14T23:11:41.031Z,31.33
2023-02-14T23:14:26.540Z,28.48
2023-02-14T23:17:11.302Z,27.23
2023-02-14T23:19:56.285Z,27.85
2023-02-14T23:22:26.761Z,27.92
2023-02-14T23:24:55.446Z,26.05
2023-02-14T23:27:24.244Z,26.33
2023-02-14T23:29:50.744Z,27.03
2023-02-14T23:32:17.397Z,26.67
2023-02-14T23:34:44.977Z,27.80
2023-02-14T23:37:13.563Z,25.23
2023-02-14T23:39:40.811Z,28.00
2023-02-14T23:42:10.460Z,26.83
2023-02-14T23:44:37.286Z,25.15
2023-02-14T23:47:06.768Z,26.65
2023-02-14T23:49:35.393Z,26.67
2023-02-14T23:52:03.382Z,26.55
2023-02-14T23:54:29.914Z,26.17
2023-02-14T23:56:57.516Z,24.80
2023-02-14T23:59:24.425Z,25.50
